sensor_id;sensor_type;location;lat;lon;timestamp;P1;durP1;ratioP1;P2;durP2;ratioP2
54823;SDS011;40724;53.196;5.980;2023-05-08T00:00:23;12.88;;;11.15;;
54823;SDS011;40724;53.196;5.980;2023-05-08T00:02:49;13.63;;;11.23;;
54823;SDS011;40724;53.196;5.980;2023-05-08T00:05:15;13.48;;;11.48;;
54823;SDS011;40724;53.196;5.980;2023-05-08T00:07:41;13.65;;;10.15;;
54823;SDS011;40724;53.196;5.980;2023-05-08T00:10:08;12.85;;;10.82;;
54823;SDS011;40724;53.196;5.980;2023-05-08T00:12:35;11.23;;;9.65;;
54823;SDS011;40724;53.196;5.980;2023-05-08T00:15:01;13.10;;;10.18;;
54823;SDS011;40724;53.196;5.980;2023-05-08T00:17:28;11.80;;;10.48;;
54823;SDS011;40724;53.196;5.980;2023-05-08T00:19:54;15.07;;;10.93;;
54823;SDS011;40724;53.196;5.980;2023-05-08T00:22:21;13.00;;;9.95;;
54823;SDS011;40724;53.196;5.980;2023-05-08T00:24:47;11.65;;;10.18;;
54823;SDS011;40724;53.196;5.980;2023-05-08T00:27:13;12.20;;;10.88;;
54823;SDS011;40724;53.196;5.980;2023-05-08T00:29:39;13.10;;;11.63;;
54823;SDS011;40724;53.196;5.980;2023-05-08T00:32:06;16.83;;;10.90;;
54823;SDS011;40724;53.196;5.980;2023-05-08T00:34:32;11.77;;;10.32;;
54823;SDS011;40724;53.196;5.980;2023-05-08T00:36:58;12.15;;;10.32;;
54823;SDS011;40724;53.196;5.980;2023-05-08T00:39:24;13.55;;;10.55;;
54823;SDS011;40724;53.196;5.980;2023-05-08T00:41:50;13.25;;;9.65;;
54823;SDS011;40724;53.196;5.980;2023-05-08T00:44:17;14.30;;;10.98;;
54823;SDS011;40724;53.196;5.980;2023-05-08T00:46:43;16.08;;;11.73;;
54823;SDS011;40724;53.196;5.980;2023-05-08T00:49:09;14.68;;;11.00;;
54823;SDS011;40724;53.196;5.980;2023-05-08T00:51:41;13.77;;;10.90;;
54823;SDS011;40724;53.196;5.980;2023-05-08T00:54:08;13.05;;;10.63;;
54823;SDS011;40724;53.196;5.980;2023-05-08T00:56:35;11.90;;;9.95;;
54823;SDS011;40724;53.196;5.980;2023-05-08T00:59:02;12.07;;;9.77;;
54823;SDS011;40724;53.196;5.980;2023-05-08T01:01:28;14.05;;;11.45;;
54823;SDS011;40724;53.196;5.980;2023-05-08T01:03:55;12.63;;;10.43;;
54823;SDS011;40724;53.196;5.980;2023-05-08T01:06:22;12.98;;;10.57;;
54823;SDS011;40724;53.196;5.980;2023-05-08T01:08:48;13.35;;;10.77;;
54823;SDS011;40724;53.196;5.980;2023-05-08T01:11:26;15.48;;;11.15;;
54823;SDS011;40724;53.196;5.980;2023-05-08T01:19:39;13.80;;;11.20;;
54823;SDS011;40724;53.196;5.980;2023-05-08T01:22:04;14.30;;;10.10;;
54823;SDS011;40724;53.196;5.980;2023-05-08T01:24:41;16.67;;;12.25;;
54823;SDS011;40724;53.196;5.980;2023-05-08T01:27:17;14.18;;;11.10;;
54823;SDS011;40724;53.196;5.980;2023-05-08T01:32:35;13.32;;;11.18;;
54823;SDS011;40724;53.196;5.980;2023-05-08T01:40:38;13.95;;;11.43;;
54823;SDS011;40724;53.196;5.980;2023-05-08T01:43:13;14.60;;;10.77;;
54823;SDS011;40724;53.196;5.980;2023-05-08T01:45:43;13.80;;;11.98;;
54823;SDS011;40724;53.196;5.980;2023-05-08T01:48:10;13.52;;;11.02;;
54823;SDS011;40724;53.196;5.980;2023-05-08T01:50:40;17.33;;;11.52;;
54823;SDS011;40724;53.196;5.980;2023-05-08T01:53:09;16.42;;;12.32;;
54823;SDS011;40724;53.196;5.980;2023-05-08T01:55:36;16.30;;;13.10;;
54823;SDS011;40724;53.196;5.980;2023-05-08T01:58:06;15.93;;;11.48;;
54823;SDS011;40724;53.196;5.980;2023-05-08T02:00:33;14.05;;;12.02;;
54823;SDS011;40724;53.196;5.980;2023-05-08T02:03:00;14.07;;;11.32;;
54823;SDS011;40724;53.196;5.980;2023-05-08T02:05:26;16.48;;;13.07;;
54823;SDS011;40724;53.196;5.980;2023-05-08T02:07:53;17.25;;;13.05;;
54823;SDS011;40724;53.196;5.980;2023-05-08T02:10:20;16.80;;;12.20;;
54823;SDS011;40724;53.196;5.980;2023-05-08T02:12:47;15.13;;;12.82;;
54823;SDS011;40724;53.196;5.980;2023-05-08T02:15:14;14.85;;;12.32;;
54823;SDS011;40724;53.196;5.980;2023-05-08T02:17:41;17.48;;;13.23;;
54823;SDS011;40724;53.196;5.980;2023-05-08T02:20:08;17.25;;;13.00;;
54823;SDS011;40724;53.196;5.980;2023-05-08T02:22:39;15.77;;;13.50;;
54823;SDS011;40724;53.196;5.980;2023-05-08T02:25:10;14.75;;;11.65;;
54823;SDS011;40724;53.196;5.980;2023-05-08T02:27:39;15.90;;;12.02;;
54823;SDS011;40724;53.196;5.980;2023-05-08T02:30:09;17.00;;;12.63;;
54823;SDS011;40724;53.196;5.980;2023-05-08T02:32:40;16.10;;;12.68;;
54823;SDS011;40724;53.196;5.980;2023-05-08T02:35:09;16.58;;;13.15;;
54823;SDS011;40724;53.196;5.980;2023-05-08T02:37:37;15.85;;;13.02;;
54823;SDS011;40724;53.196;5.980;2023-05-08T02:40:04;15.68;;;13.00;;
54823;SDS011;40724;53.196;5.980;2023-05-08T02:42:31;15.32;;;12.45;;
54823;SDS011;40724;53.196;5.980;2023-05-08T02:44:57;22.30;;;15.18;;
54823;SDS011;40724;53.196;5.980;2023-05-08T02:47:28;18.15;;;12.73;;
54823;SDS011;40724;53.196;5.980;2023-05-08T02:49:59;16.83;;;13.52;;
54823;SDS011;40724;53.196;5.980;2023-05-08T02:52:37;17.67;;;13.73;;
54823;SDS011;40724;53.196;5.980;2023-05-08T03:00:11;16.55;;;12.80;;
54823;SDS011;40724;53.196;5.980;2023-05-08T03:05:16;20.13;;;14.90;;
54823;SDS011;40724;53.196;5.980;2023-05-08T03:07:42;18.13;;;13.40;;
54823;SDS011;40724;53.196;5.980;2023-05-08T03:10:10;20.83;;;13.38;;
54823;SDS011;40724;53.196;5.980;2023-05-08T03:12:45;18.48;;;13.38;;
54823;SDS011;40724;53.196;5.980;2023-05-08T03:15:23;16.25;;;12.13;;
54823;SDS011;40724;53.196;5.980;2023-05-08T03:17:51;19.00;;;14.57;;
54823;SDS011;40724;53.196;5.980;2023-05-08T03:20:18;18.45;;;13.90;;
54823;SDS011;40724;53.196;5.980;2023-05-08T03:22:45;18.33;;;14.55;;
54823;SDS011;40724;53.196;5.980;2023-05-08T03:25:12;16.42;;;13.15;;
54823;SDS011;40724;53.196;5.980;2023-05-08T03:27:40;16.42;;;13.75;;
54823;SDS011;40724;53.196;5.980;2023-05-08T03:30:06;17.73;;;13.50;;
54823;SDS011;40724;53.196;5.980;2023-05-08T03:32:33;15.05;;;12.82;;
54823;SDS011;40724;53.196;5.980;2023-05-08T03:35:00;18.15;;;12.63;;
54823;SDS011;40724;53.196;5.980;2023-05-08T03:37:26;15.85;;;13.15;;
54823;SDS011;40724;53.196;5.980;2023-05-08T03:39:53;21.90;;;14.02;;
54823;SDS011;40724;53.196;5.980;2023-05-08T03:42:21;20.98;;;13.40;;
54823;SDS011;40724;53.196;5.980;2023-05-08T03:44:51;16.88;;;12.85;;
54823;SDS011;40724;53.196;5.980;2023-05-08T03:47:18;15.40;;;12.20;;
54823;SDS011;40724;53.196;5.980;2023-05-08T03:49:45;15.60;;;12.95;;
54823;SDS011;40724;53.196;5.980;2023-05-08T03:52:14;17.30;;;14.00;;
54823;SDS011;40724;53.196;5.980;2023-05-08T03:54:41;16.02;;;13.30;;
54823;SDS011;40724;53.196;5.980;2023-05-08T03:57:07;18.63;;;13.00;;
54823;SDS011;40724;53.196;5.980;2023-05-08T04:02:20;17.73;;;12.57;;
54823;SDS011;40724;53.196;5.980;2023-05-08T04:04:49;18.45;;;14.45;;
54823;SDS011;40724;53.196;5.980;2023-05-08T04:07:19;17.30;;;13.48;;
54823;SDS011;40724;53.196;5.980;2023-05-08T04:10:02;17.45;;;13.48;;
54823;SDS011;40724;53.196;5.980;2023-05-08T04:13:33;19.55;;;14.70;;
54823;SDS011;40724;53.196;5.980;2023-05-08T04:15:27;18.13;;;13.35;;
54823;SDS011;40724;53.196;5.980;2023-05-08T04:17:56;17.40;;;13.10;;
54823;SDS011;40724;53.196;5.980;2023-05-08T04:20:25;16.35;;;13.07;;
54823;SDS011;40724;53.196;5.980;2023-05-08T04:22:52;16.70;;;12.88;;
54823;SDS011;40724;53.196;5.980;2023-05-08T04:25:19;17.25;;;13.27;;
54823;SDS011;40724;53.196;5.980;2023-05-08T04:27:47;17.33;;;12.85;;
54823;SDS011;40724;53.196;5.980;2023-05-08T04:30:15;16.25;;;12.65;;
54823;SDS011;40724;53.196;5.980;2023-05-08T04:32:41;18.73;;;13.45;;
54823;SDS011;40724;53.196;5.980;2023-05-08T04:35:08;16.63;;;12.68;;
54823;SDS011;40724;53.196;5.980;2023-05-08T04:37:34;15.90;;;13.70;;
54823;SDS011;40724;53.196;5.980;2023-05-08T04:40:01;15.43;;;12.73;;
54823;SDS011;40724;53.196;5.980;2023-05-08T04:42:29;17.00;;;13.82;;
54823;SDS011;40724;53.196;5.980;2023-05-08T04:44:55;17.40;;;13.73;;
54823;SDS011;40724;53.196;5.980;2023-05-08T04:47:21;18.08;;;13.45;;
54823;SDS011;40724;53.196;5.980;2023-05-08T04:49:48;15.20;;;12.38;;
54823;SDS011;40724;53.196;5.980;2023-05-08T04:52:15;16.52;;;13.07;;
54823;SDS011;40724;53.196;5.980;2023-05-08T04:54:41;18.50;;;14.15;;
54823;SDS011;40724;53.196;5.980;2023-05-08T04:57:06;19.15;;;14.40;;
54823;SDS011;40724;53.196;5.980;2023-05-08T04:59:33;15.65;;;11.48;;
54823;SDS011;40724;53.196;5.980;2023-05-08T05:01:59;17.35;;;13.23;;
54823;SDS011;40724;53.196;5.980;2023-05-08T05:04:30;19.92;;;12.35;;
54823;SDS011;40724;53.196;5.980;2023-05-08T05:06:56;15.25;;;13.30;;
54823;SDS011;40724;53.196;5.980;2023-05-08T05:09:23;16.75;;;14.15;;
54823;SDS011;40724;53.196;5.980;2023-05-08T05:11:50;20.00;;;13.25;;
54823;SDS011;40724;53.196;5.980;2023-05-08T05:14:16;16.13;;;12.30;;
54823;SDS011;40724;53.196;5.980;2023-05-08T05:16:42;18.02;;;13.75;;
54823;SDS011;40724;53.196;5.980;2023-05-08T05:19:08;16.42;;;13.30;;
54823;SDS011;40724;53.196;5.980;2023-05-08T05:21:34;16.80;;;12.32;;
54823;SDS011;40724;53.196;5.980;2023-05-08T05:24:02;16.02;;;12.98;;
54823;SDS011;40724;53.196;5.980;2023-05-08T05:26:28;18.88;;;12.40;;
54823;SDS011;40724;53.196;5.980;2023-05-08T05:28:54;17.15;;;13.38;;
54823;SDS011;40724;53.196;5.980;2023-05-08T05:31:20;16.92;;;12.77;;
54823;SDS011;40724;53.196;5.980;2023-05-08T05:33:47;17.10;;;13.82;;
54823;SDS011;40724;53.196;5.980;2023-05-08T05:36:13;16.73;;;12.73;;
54823;SDS011;40724;53.196;5.980;2023-05-08T05:38:39;17.02;;;13.18;;
54823;SDS011;40724;53.196;5.980;2023-05-08T05:41:05;17.00;;;12.57;;
54823;SDS011;40724;53.196;5.980;2023-05-08T05:43:31;17.20;;;13.82;;
54823;SDS011;40724;53.196;5.980;2023-05-08T05:46:04;18.30;;;13.13;;
54823;SDS011;40724;53.196;5.980;2023-05-08T05:48:30;14.52;;;12.20;;
54823;SDS011;40724;53.196;5.980;2023-05-08T05:50:57;17.02;;;13.15;;
54823;SDS011;40724;53.196;5.980;2023-05-08T05:53:23;13.90;;;11.85;;
54823;SDS011;40724;53.196;5.980;2023-05-08T05:55:49;16.15;;;11.88;;
54823;SDS011;40724;53.196;5.980;2023-05-08T05:58:15;17.58;;;12.43;;
54823;SDS011;40724;53.196;5.980;2023-05-08T06:00:42;17.60;;;13.82;;
54823;SDS011;40724;53.196;5.980;2023-05-08T06:03:08;15.18;;;11.60;;
54823;SDS011;40724;53.196;5.980;2023-05-08T06:05:35;16.80;;;12.32;;
54823;SDS011;40724;53.196;5.980;2023-05-08T06:08:01;14.65;;;11.55;;
54823;SDS011;40724;53.196;5.980;2023-05-08T06:10:27;16.40;;;12.32;;
54823;SDS011;40724;53.196;5.980;2023-05-08T06:12:54;24.88;;;12.55;;
54823;SDS011;40724;53.196;5.980;2023-05-08T06:15:21;15.02;;;11.63;;
54823;SDS011;40724;53.196;5.980;2023-05-08T06:17:47;14.95;;;12.93;;
54823;SDS011;40724;53.196;5.980;2023-05-08T06:20:13;16.27;;;11.70;;
54823;SDS011;40724;53.196;5.980;2023-05-08T06:22:40;15.45;;;12.18;;
54823;SDS011;40724;53.196;5.980;2023-05-08T06:25:06;18.25;;;11.93;;
54823;SDS011;40724;53.196;5.980;2023-05-08T06:27:33;14.70;;;11.48;;
54823;SDS011;40724;53.196;5.980;2023-05-08T06:30:00;14.88;;;12.10;;
54823;SDS011;40724;53.196;5.980;2023-05-08T06:32:26;14.43;;;11.70;;
54823;SDS011;40724;53.196;5.980;2023-05-08T06:34:52;15.55;;;11.48;;
54823;SDS011;40724;53.196;5.980;2023-05-08T06:37:18;15.07;;;12.02;;
54823;SDS011;40724;53.196;5.980;2023-05-08T06:39:44;14.23;;;11.98;;
54823;SDS011;40724;53.196;5.980;2023-05-08T06:42:11;16.38;;;11.82;;
54823;SDS011;40724;53.196;5.980;2023-05-08T06:44:37;18.23;;;13.35;;
54823;SDS011;40724;53.196;5.980;2023-05-08T06:47:04;13.65;;;11.88;;
54823;SDS011;40724;53.196;5.980;2023-05-08T06:49:31;17.77;;;12.90;;
54823;SDS011;40724;53.196;5.980;2023-05-08T06:51:57;16.92;;;12.52;;
54823;SDS011;40724;53.196;5.980;2023-05-08T06:54:23;16.17;;;11.95;;
54823;SDS011;40724;53.196;5.980;2023-05-08T06:56:51;15.98;;;10.70;;
54823;SDS011;40724;53.196;5.980;2023-05-08T06:59:18;14.52;;;11.38;;
54823;SDS011;40724;53.196;5.980;2023-05-08T07:01:44;15.90;;;10.98;;
54823;SDS011;40724;53.196;5.980;2023-05-08T07:04:10;15.40;;;11.75;;
54823;SDS011;40724;53.196;5.980;2023-05-08T07:06:36;15.30;;;12.25;;
54823;SDS011;40724;53.196;5.980;2023-05-08T07:09:02;16.77;;;11.98;;
54823;SDS011;40724;53.196;5.980;2023-05-08T07:11:28;14.30;;;12.00;;
54823;SDS011;40724;53.196;5.980;2023-05-08T07:13:55;14.70;;;12.40;;
54823;SDS011;40724;53.196;5.980;2023-05-08T07:16:21;16.77;;;12.80;;
54823;SDS011;40724;53.196;5.980;2023-05-08T07:18:47;14.30;;;11.73;;
54823;SDS011;40724;53.196;5.980;2023-05-08T07:21:13;14.32;;;12.38;;
54823;SDS011;40724;53.196;5.980;2023-05-08T07:23:42;18.23;;;12.50;;
54823;SDS011;40724;53.196;5.980;2023-05-08T07:26:08;14.35;;;11.85;;
54823;SDS011;40724;53.196;5.980;2023-05-08T07:28:35;16.42;;;12.77;;
54823;SDS011;40724;53.196;5.980;2023-05-08T07:31:04;14.90;;;13.10;;
54823;SDS011;40724;53.196;5.980;2023-05-08T07:33:33;14.75;;;11.80;;
54823;SDS011;40724;53.196;5.980;2023-05-08T07:35:59;16.83;;;13.00;;
54823;SDS011;40724;53.196;5.980;2023-05-08T07:38:26;14.40;;;11.65;;
54823;SDS011;40724;53.196;5.980;2023-05-08T07:40:52;14.68;;;12.30;;
54823;SDS011;40724;53.196;5.980;2023-05-08T07:43:21;17.08;;;12.55;;
54823;SDS011;40724;53.196;5.980;2023-05-08T07:45:47;14.90;;;11.73;;
54823;SDS011;40724;53.196;5.980;2023-05-08T07:48:13;15.18;;;11.40;;
54823;SDS011;40724;53.196;5.980;2023-05-08T07:50:39;13.55;;;12.07;;
54823;SDS011;40724;53.196;5.980;2023-05-08T07:53:06;16.08;;;12.18;;
54823;SDS011;40724;53.196;5.980;2023-05-08T07:55:32;15.98;;;12.43;;
54823;SDS011;40724;53.196;5.980;2023-05-08T07:57:58;18.17;;;13.68;;
54823;SDS011;40724;53.196;5.980;2023-05-08T08:00:24;14.02;;;11.45;;
54823;SDS011;40724;53.196;5.980;2023-05-08T08:02:53;14.15;;;11.45;;
54823;SDS011;40724;53.196;5.980;2023-05-08T08:05:19;15.82;;;11.65;;
54823;SDS011;40724;53.196;5.980;2023-05-08T08:07:46;14.98;;;12.00;;
54823;SDS011;40724;53.196;5.980;2023-05-08T08:10:12;16.38;;;12.60;;
54823;SDS011;40724;53.196;5.980;2023-05-08T08:12:38;20.13;;;12.57;;
54823;SDS011;40724;53.196;5.980;2023-05-08T08:15:04;15.25;;;11.82;;
54823;SDS011;40724;53.196;5.980;2023-05-08T08:17:31;13.48;;;11.55;;
54823;SDS011;40724;53.196;5.980;2023-05-08T08:19:57;15.88;;;12.48;;
54823;SDS011;40724;53.196;5.980;2023-05-08T08:22:24;14.32;;;11.73;;
54823;SDS011;40724;53.196;5.980;2023-05-08T08:24:50;15.35;;;12.85;;
54823;SDS011;40724;53.196;5.980;2023-05-08T08:27:16;16.70;;;12.55;;
54823;SDS011;40724;53.196;5.980;2023-05-08T08:29:42;15.68;;;12.45;;
54823;SDS011;40724;53.196;5.980;2023-05-08T08:32:09;15.57;;;13.07;;
54823;SDS011;40724;53.196;5.980;2023-05-08T08:34:35;16.70;;;12.00;;
54823;SDS011;40724;53.196;5.980;2023-05-08T08:37:03;16.08;;;13.60;;
54823;SDS011;40724;53.196;5.980;2023-05-08T08:39:33;14.45;;;11.85;;
54823;SDS011;40724;53.196;5.980;2023-05-08T08:41:59;13.75;;;12.32;;
54823;SDS011;40724;53.196;5.980;2023-05-08T08:44:25;16.60;;;12.68;;
54823;SDS011;40724;53.196;5.980;2023-05-08T08:46:52;15.52;;;12.60;;
54823;SDS011;40724;53.196;5.980;2023-05-08T08:49:24;15.38;;;12.05;;
54823;SDS011;40724;53.196;5.980;2023-05-08T08:51:57;14.88;;;13.15;;
54823;SDS011;40724;53.196;5.980;2023-05-08T08:54:24;17.25;;;13.15;;
54823;SDS011;40724;53.196;5.980;2023-05-08T08:56:53;17.98;;;12.80;;
54823;SDS011;40724;53.196;5.980;2023-05-08T08:59:20;15.07;;;12.40;;
54823;SDS011;40724;53.196;5.980;2023-05-08T09:01:49;18.45;;;12.80;;
54823;SDS011;40724;53.196;5.980;2023-05-08T09:04:18;16.77;;;13.55;;
54823;SDS011;40724;53.196;5.980;2023-05-08T09:06:44;13.98;;;11.70;;
54823;SDS011;40724;53.196;5.980;2023-05-08T09:09:11;18.90;;;13.75;;
54823;SDS011;40724;53.196;5.980;2023-05-08T09:11:38;18.45;;;14.48;;
54823;SDS011;40724;53.196;5.980;2023-05-08T09:14:05;17.58;;;13.73;;
54823;SDS011;40724;53.196;5.980;2023-05-08T09:16:32;19.80;;;15.75;;
54823;SDS011;40724;53.196;5.980;2023-05-08T09:18:58;18.63;;;14.95;;
54823;SDS011;40724;53.196;5.980;2023-05-08T09:21:25;16.92;;;14.18;;
54823;SDS011;40724;53.196;5.980;2023-05-08T09:23:56;20.70;;;14.77;;
54823;SDS011;40724;53.196;5.980;2023-05-08T09:26:29;18.05;;;14.45;;
54823;SDS011;40724;53.196;5.980;2023-05-08T09:29:12;17.65;;;13.95;;
54823;SDS011;40724;53.196;5.980;2023-05-08T09:31:43;18.45;;;14.43;;
54823;SDS011;40724;53.196;5.980;2023-05-08T09:34:11;18.13;;;14.48;;
54823;SDS011;40724;53.196;5.980;2023-05-08T09:36:48;19.30;;;15.48;;
54823;SDS011;40724;53.196;5.980;2023-05-08T09:39:20;21.23;;;16.45;;
54823;SDS011;40724;53.196;5.980;2023-05-08T09:41:56;20.60;;;15.10;;
54823;SDS011;40724;53.196;5.980;2023-05-08T09:44:22;20.75;;;15.38;;
54823;SDS011;40724;53.196;5.980;2023-05-08T09:46:48;17.85;;;15.90;;
54823;SDS011;40724;53.196;5.980;2023-05-08T09:49:17;19.73;;;15.68;;
54823;SDS011;40724;53.196;5.980;2023-05-08T09:51:50;20.27;;;16.13;;
54823;SDS011;40724;53.196;5.980;2023-05-08T09:54:18;18.60;;;15.90;;
54823;SDS011;40724;53.196;5.980;2023-05-08T09:56:44;22.60;;;15.70;;
54823;SDS011;40724;53.196;5.980;2023-05-08T09:59:23;21.98;;;16.38;;
54823;SDS011;40724;53.196;5.980;2023-05-08T10:01:53;19.08;;;16.95;;
54823;SDS011;40724;53.196;5.980;2023-05-08T10:04:32;20.42;;;17.23;;
54823;SDS011;40724;53.196;5.980;2023-05-08T10:06:59;20.13;;;16.48;;
54823;SDS011;40724;53.196;5.980;2023-05-08T10:09:25;22.70;;;17.15;;
54823;SDS011;40724;53.196;5.980;2023-05-08T10:11:52;21.70;;;16.63;;
54823;SDS011;40724;53.196;5.980;2023-05-08T10:14:19;16.70;;;14.90;;
54823;SDS011;40724;53.196;5.980;2023-05-08T10:16:46;19.98;;;16.77;;
54823;SDS011;40724;53.196;5.980;2023-05-08T10:19:14;19.75;;;16.40;;
54823;SDS011;40724;53.196;5.980;2023-05-08T10:21:41;23.73;;;17.65;;
54823;SDS011;40724;53.196;5.980;2023-05-08T10:24:14;21.35;;;16.63;;
54823;SDS011;40724;53.196;5.980;2023-05-08T10:26:42;19.60;;;16.30;;
54823;SDS011;40724;53.196;5.980;2023-05-08T10:29:11;18.40;;;15.18;;
54823;SDS011;40724;53.196;5.980;2023-05-08T10:31:39;23.25;;;17.67;;
54823;SDS011;40724;53.196;5.980;2023-05-08T10:34:08;21.35;;;17.10;;
54823;SDS011;40724;53.196;5.980;2023-05-08T10:36:41;21.38;;;15.40;;
54823;SDS011;40724;53.196;5.980;2023-05-08T10:39:07;22.60;;;18.17;;
54823;SDS011;40724;53.196;5.980;2023-05-08T10:41:34;21.02;;;16.08;;
54823;SDS011;40724;53.196;5.980;2023-05-08T10:44:01;18.23;;;15.98;;
54823;SDS011;40724;53.196;5.980;2023-05-08T10:46:29;19.35;;;16.48;;
54823;SDS011;40724;53.196;5.980;2023-05-08T10:51:34;20.40;;;16.75;;
54823;SDS011;40724;53.196;5.980;2023-05-08T10:54:18;20.25;;;16.75;;
54823;SDS011;40724;53.196;5.980;2023-05-08T10:56:48;19.83;;;17.55;;
54823;SDS011;40724;53.196;5.980;2023-05-08T10:59:17;19.95;;;15.73;;
54823;SDS011;40724;53.196;5.980;2023-05-08T11:01:47;19.35;;;16.30;;
54823;SDS011;40724;53.196;5.980;2023-05-08T11:04:20;19.60;;;14.52;;
54823;SDS011;40724;53.196;5.980;2023-05-08T11:06:47;20.80;;;16.83;;
54823;SDS011;40724;53.196;5.980;2023-05-08T11:09:20;19.35;;;15.10;;
54823;SDS011;40724;53.196;5.980;2023-05-08T11:11:57;20.60;;;15.77;;
54823;SDS011;40724;53.196;5.980;2023-05-08T11:14:24;21.25;;;15.77;;
54823;SDS011;40724;53.196;5.980;2023-05-08T11:19:18;19.00;;;14.77;;
54823;SDS011;40724;53.196;5.980;2023-05-08T11:24:33;17.15;;;15.25;;
54823;SDS011;40724;53.196;5.980;2023-05-08T11:29:32;20.73;;;15.30;;
54823;SDS011;40724;53.196;5.980;2023-05-08T11:31:58;16.55;;;14.48;;
54823;SDS011;40724;53.196;5.980;2023-05-08T11:37:10;20.42;;;15.25;;
54823;SDS011;40724;53.196;5.980;2023-05-08T11:39:36;20.23;;;14.88;;
54823;SDS011;40724;53.196;5.980;2023-05-08T11:45:05;18.90;;;14.50;;
54823;SDS011;40724;53.196;5.980;2023-05-08T11:47:39;18.95;;;15.48;;
54823;SDS011;40724;53.196;5.980;2023-05-08T11:50:09;20.45;;;15.38;;
54823;SDS011;40724;53.196;5.980;2023-05-08T11:52:37;19.02;;;15.82;;
54823;SDS011;40724;53.196;5.980;2023-05-08T11:55:07;17.52;;;14.68;;
54823;SDS011;40724;53.196;5.980;2023-05-08T11:57:33;19.08;;;16.23;;
54823;SDS011;40724;53.196;5.980;2023-05-08T12:00:06;20.13;;;16.50;;
54823;SDS011;40724;53.196;5.980;2023-05-08T12:02:36;21.08;;;16.48;;
54823;SDS011;40724;53.196;5.980;2023-05-08T12:05:03;20.55;;;16.73;;
54823;SDS011;40724;53.196;5.980;2023-05-08T12:07:29;20.70;;;17.85;;
54823;SDS011;40724;53.196;5.980;2023-05-08T12:09:55;19.58;;;15.27;;
54823;SDS011;40724;53.196;5.980;2023-05-08T12:12:21;21.67;;;16.65;;
54823;SDS011;40724;53.196;5.980;2023-05-08T12:14:48;19.73;;;16.27;;
54823;SDS011;40724;53.196;5.980;2023-05-08T12:17:18;19.25;;;15.10;;
54823;SDS011;40724;53.196;5.980;2023-05-08T12:19:44;21.77;;;17.25;;
54823;SDS011;40724;53.196;5.980;2023-05-08T12:22:10;21.77;;;16.85;;
54823;SDS011;40724;53.196;5.980;2023-05-08T12:24:37;20.40;;;16.38;;
54823;SDS011;40724;53.196;5.980;2023-05-08T12:27:04;19.25;;;16.23;;
54823;SDS011;40724;53.196;5.980;2023-05-08T12:29:34;23.73;;;17.33;;
54823;SDS011;40724;53.196;5.980;2023-05-08T12:32:00;19.08;;;16.33;;
54823;SDS011;40724;53.196;5.980;2023-05-08T12:34:26;23.20;;;20.63;;
54823;SDS011;40724;53.196;5.980;2023-05-08T12:37:02;22.77;;;17.77;;
54823;SDS011;40724;53.196;5.980;2023-05-08T12:39:33;23.08;;;18.15;;
54823;SDS011;40724;53.196;5.980;2023-05-08T12:42:00;21.88;;;16.98;;
54823;SDS011;40724;53.196;5.980;2023-05-08T12:44:26;19.17;;;15.85;;
54823;SDS011;40724;53.196;5.980;2023-05-08T12:46:53;22.27;;;19.27;;
54823;SDS011;40724;53.196;5.980;2023-05-08T12:49:24;20.33;;;16.75;;
54823;SDS011;40724;53.196;5.980;2023-05-08T12:51:50;23.35;;;18.35;;
54823;SDS011;40724;53.196;5.980;2023-05-08T12:54:17;23.20;;;17.20;;
54823;SDS011;40724;53.196;5.980;2023-05-08T12:56:43;23.73;;;17.70;;
54823;SDS011;40724;53.196;5.980;2023-05-08T12:59:09;22.67;;;18.08;;
54823;SDS011;40724;53.196;5.980;2023-05-08T13:01:35;24.48;;;18.77;;
54823;SDS011;40724;53.196;5.980;2023-05-08T13:04:01;19.63;;;16.70;;
54823;SDS011;40724;53.196;5.980;2023-05-08T13:06:31;23.98;;;18.42;;
54823;SDS011;40724;53.196;5.980;2023-05-08T13:08:58;22.10;;;17.90;;
54823;SDS011;40724;53.196;5.980;2023-05-08T13:11:27;20.35;;;16.95;;
54823;SDS011;40724;53.196;5.980;2023-05-08T13:13:58;22.23;;;17.65;;
54823;SDS011;40724;53.196;5.980;2023-05-08T13:16:24;20.73;;;17.27;;
54823;SDS011;40724;53.196;5.980;2023-05-08T13:18:50;21.77;;;18.77;;
54823;SDS011;40724;53.196;5.980;2023-05-08T13:21:17;21.63;;;17.35;;
54823;SDS011;40724;53.196;5.980;2023-05-08T13:23:43;22.73;;;18.52;;
54823;SDS011;40724;53.196;5.980;2023-05-08T13:26:09;21.20;;;18.35;;
54823;SDS011;40724;53.196;5.980;2023-05-08T13:28:35;24.67;;;18.75;;
54823;SDS011;40724;53.196;5.980;2023-05-08T13:31:01;20.60;;;18.48;;
54823;SDS011;40724;53.196;5.980;2023-05-08T13:33:27;22.88;;;19.95;;
54823;SDS011;40724;53.196;5.980;2023-05-08T13:35:53;25.05;;;20.55;;
54823;SDS011;40724;53.196;5.980;2023-05-08T13:38:20;25.80;;;21.17;;
54823;SDS011;40724;53.196;5.980;2023-05-08T13:40:46;24.67;;;20.02;;
54823;SDS011;40724;53.196;5.980;2023-05-08T13:43:12;29.33;;;21.88;;
54823;SDS011;40724;53.196;5.980;2023-05-08T13:45:38;25.50;;;19.70;;
54823;SDS011;40724;53.196;5.980;2023-05-08T13:48:05;25.33;;;20.90;;
54823;SDS011;40724;53.196;5.980;2023-05-08T13:50:31;26.98;;;21.05;;
54823;SDS011;40724;53.196;5.980;2023-05-08T13:52:57;27.13;;;20.42;;
54823;SDS011;40724;53.196;5.980;2023-05-08T13:55:23;25.10;;;21.90;;
54823;SDS011;40724;53.196;5.980;2023-05-08T13:57:49;24.17;;;19.27;;
54823;SDS011;40724;53.196;5.980;2023-05-08T14:00:16;47.75;;;24.30;;
54823;SDS011;40724;53.196;5.980;2023-05-08T14:02:42;40.05;;;23.60;;
54823;SDS011;40724;53.196;5.980;2023-05-08T14:05:08;249.43;;;51.67;;
54823;SDS011;40724;53.196;5.980;2023-05-08T14:07:34;33.05;;;21.10;;
54823;SDS011;40724;53.196;5.980;2023-05-08T14:10:01;79.20;;;31.10;;
54823;SDS011;40724;53.196;5.980;2023-05-08T14:12:27;367.83;;;66.35;;
54823;SDS011;40724;53.196;5.980;2023-05-08T14:14:53;33.47;;;22.70;;
54823;SDS011;40724;53.196;5.980;2023-05-08T14:17:19;133.68;;;35.28;;
54823;SDS011;40724;53.196;5.980;2023-05-08T14:19:46;41.42;;;24.30;;
54823;SDS011;40724;53.196;5.980;2023-05-08T14:22:12;50.22;;;27.17;;
54823;SDS011;40724;53.196;5.980;2023-05-08T14:24:38;46.78;;;29.20;;
54823;SDS011;40724;53.196;5.980;2023-05-08T14:27:04;65.47;;;32.85;;
54823;SDS011;40724;53.196;5.980;2023-05-08T14:29:33;54.72;;;30.55;;
54823;SDS011;40724;53.196;5.980;2023-05-08T14:31:59;82.72;;;32.90;;
54823;SDS011;40724;53.196;5.980;2023-05-08T14:34:26;90.93;;;34.78;;
54823;SDS011;40724;53.196;5.980;2023-05-08T14:36:52;42.72;;;29.95;;
54823;SDS011;40724;53.196;5.980;2023-05-08T14:39:18;147.82;;;45.30;;
54823;SDS011;40724;53.196;5.980;2023-05-08T14:41:44;150.43;;;47.22;;
54823;SDS011;40724;53.196;5.980;2023-05-08T14:44:11;48.35;;;31.77;;
54823;SDS011;40724;53.196;5.980;2023-05-08T14:46:37;37.00;;;29.80;;
54823;SDS011;40724;53.196;5.980;2023-05-08T14:49:03;34.15;;;27.92;;
54823;SDS011;40724;53.196;5.980;2023-05-08T14:51:29;34.97;;;29.95;;
54823;SDS011;40724;53.196;5.980;2023-05-08T14:53:55;34.42;;;29.02;;
54823;SDS011;40724;53.196;5.980;2023-05-08T14:56:21;32.60;;;27.20;;
54823;SDS011;40724;53.196;5.980;2023-05-08T14:58:51;37.90;;;28.70;;
54823;SDS011;40724;53.196;5.980;2023-05-08T15:01:19;31.70;;;26.45;;
54823;SDS011;40724;53.196;5.980;2023-05-08T15:03:46;32.47;;;26.23;;